createdAt,value
2022-10-05T00:01:25.941Z,9.45
2022-10-05T00:04:29.176Z,9.42
2022-10-05T00:07:33.391Z,9.46
2022-10-05T00:10:36.230Z,9.47
2022-10-05T00:13:41.018Z,9.45
2022-10-05T00:16:44.305Z,9.43
2022-10-05T00:19:52.107Z,9.39
2022-10-05T00:22:58.724Z,9.39
2022-10-05T00:26:12.958Z,9.43
2022-10-05T00:29:22.640Z,9.37
2022-10-05T00:32:25.595Z,9.36
2022-10-05T00:35:30.837Z,9.30
2022-10-05T00:38:35.052Z,9.37
2022-10-05T00:41:53.969Z,9.19
2022-10-05T00:45:03.122Z,9.25
2022-10-05T00:48:19.762Z,9.21
2022-10-05T00:51:27.745Z,9.21
2022-10-05T00:54:41.332Z,9.18
2022-10-05T00:57:54.947Z,9.09
2022-10-05T01:01:07.662Z,9.16
2022-10-05T01:04:18.057Z,9.18
2022-10-05T01:07:33.554Z,9.20
2022-10-05T01:10:44.316Z,9.26
2022-10-05T01:13:54.044Z,9.32
2022-10-05T01:17:02.954Z,9.37
2022-10-05T01:20:28.269Z,9.30
2022-10-05T01:24:26.966Z,9.36
2022-10-05T01:27:55.413Z,9.40
2022-10-05T01:31:07.123Z,9.33
2022-10-05T01:34:18.023Z,9.38
2022-10-05T01:37:27.253Z,9.41
2022-10-05T01:40:38.313Z,9.32
2022-10-05T01:43:47.957Z,9.32
2022-10-05T01:46:59.663Z,9.45
2022-10-05T01:50:05.604Z,9.45
2022-10-05T01:53:16.810Z,9.42
2022-10-05T01:56:31.490Z,9.42
2022-10-05T01:59:51.037Z,9.47
2022-10-05T02:02:59.071Z,9.46
2022-10-05T02:06:07.716Z,9.44
2022-10-05T02:09:16.176Z,9.47
2022-10-05T02:12:22.511Z,9.49
2022-10-05T02:15:31.151Z,9.48
2022-10-05T02:18:39.122Z,9.52
2022-10-05T02:21:44.761Z,9.50
2022-10-05T02:24:52.907Z,9.52
2022-10-05T02:28:02.309Z,9.57
2022-10-05T02:31:12.251Z,9.60
2022-10-05T02:34:23.973Z,9.61
2022-10-05T02:37:35.341Z,9.62
2022-10-05T02:40:50.882Z,9.58
2022-10-05T02:44:03.171Z,9.51
2022-10-05T02:47:17.429Z,9.37
2022-10-05T02:50:27.192Z,9.46
2022-10-05T02:53:39.519Z,9.42
2022-10-05T02:56:52.200Z,9.41
2022-10-05T03:00:05.118Z,9.50
2022-10-05T03:03:20.515Z,9.53
2022-10-05T03:06:28.382Z,9.56
2022-10-05T03:09:38.564Z,9.53
2022-10-05T03:12:53.533Z,9.47
2022-10-05T03:16:12.386Z,9.56
2022-10-05T03:19:32.456Z,9.51
2022-10-05T03:22:48.027Z,9.58
2022-10-05T03:26:09.958Z,9.62
2022-10-05T03:29:27.191Z,9.63
2022-10-05T03:32:40.948Z,9.60
2022-10-05T03:35:53.079Z,9.72
2022-10-05T03:39:04.057Z,9.68
2022-10-05T03:42:16.815Z,9.73
2022-10-05T03:45:28.758Z,9.76
2022-10-05T03:48:39.127Z,9.66
2022-10-05T03:51:48.053Z,9.61
2022-10-05T03:54:55.714Z,9.58
2022-10-05T03:58:04.270Z,9.49
2022-10-05T04:01:14.419Z,9.54
2022-10-05T04:04:24.850Z,9.48
2022-10-05T04:07:37.426Z,9.57
2022-10-05T04:10:45.119Z,9.54
2022-10-05T04:13:53.071Z,9.73
2022-10-05T04:17:00.697Z,9.74
2022-10-05T04:20:08.909Z,9.76
2022-10-05T04:23:20.529Z,9.80
2022-10-05T04:26:32.057Z,9.78
2022-10-05T04:29:41.058Z,9.74
2022-10-05T04:32:45.757Z,9.70
2022-10-05T04:36:13.931Z,9.68
2022-10-05T04:39:29.748Z,9.59
2022-10-05T04:42:37.931Z,9.28
2022-10-05T04:45:56.662Z,9.32
2022-10-05T04:49:15.463Z,9.32
2022-10-05T04:52:26.644Z,9.30
2022-10-05T04:55:41.207Z,9.09
2022-10-05T04:59:01.562Z,8.94
2022-10-05T05:02:14.880Z,8.87
2022-10-05T05:05:53.045Z,8.85
2022-10-05T05:09:27.736Z,8.88
2022-10-05T05:12:45.597Z,8.82
2022-10-05T05:15:54.047Z,8.80
2022-10-05T05:19:34.798Z,8.75
2022-10-05T05:22:47.990Z,8.60
2022-10-05T05:26:00.789Z,8.62
2022-10-05T05:29:15.608Z,8.60
2022-10-05T05:32:28.242Z,8.68
2022-10-05T05:36:04.181Z,8.78
2022-10-05T05:39:22.915Z,8.85
2022-10-05T05:42:35.326Z,8.96
2022-10-05T05:45:43.643Z,9.10
2022-10-05T05:48:48.913Z,9.17
2022-10-05T05:52:00.624Z,9.35
2022-10-05T05:55:15.238Z,9.39
2022-10-05T05:58:24.642Z,9.51
2022-10-05T06:01:34.773Z,9.52
2022-10-05T06:04:49.063Z,9.71
2022-10-05T06:07:53.929Z,9.80
2022-10-05T06:11:02.466Z,9.77
2022-10-05T06:14:11.630Z,9.86
2022-10-05T06:17:20.998Z,9.98
2022-10-05T06:20:29.042Z,10.01
2022-10-05T06:23:40.457Z,10.07
2022-10-05T06:27:17.058Z,10.16
2022-10-05T06:30:20.221Z,10.25
2022-10-05T06:33:49.413Z,10.40
2022-10-05T06:37:01.169Z,10.41
2022-10-05T06:40:24.543Z,10.46
2022-10-05T06:43:41.791Z,10.55
2022-10-05T06:47:19.193Z,10.62
2022-10-05T06:50:48.399Z,10.73
2022-10-05T06:54:10.465Z,10.78
2022-10-05T06:57:40.531Z,10.88
2022-10-05T07:00:50.973Z,10.94
2022-10-05T07:04:18.884Z,11.09
2022-10-05T07:07:31.497Z,11.17
2022-10-05T07:10:42.442Z,11.34
2022-10-05T07:14:09.273Z,11.60
2022-10-05T07:17:26.403Z,11.51
2022-10-05T07:20:34.854Z,11.58
2022-10-05T07:23:49.149Z,11.80
2022-10-05T07:26:58.789Z,11.88
2022-10-05T07:30:04.643Z,12.22
2022-10-05T07:33:18.782Z,12.33
2022-10-05T07:36:54.427Z,12.58
2022-10-05T07:40:09.844Z,12.92
2022-10-05T07:43:29.253Z,13.01
2022-10-05T07:46:51.122Z,13.23
2022-10-05T07:50:01.766Z,13.26
2022-10-05T07:53:14.344Z,13.34
2022-10-05T07:56:26.814Z,13.65
2022-10-05T07:59:35.835Z,13.75
2022-10-05T08:02:45.449Z,13.90
2022-10-05T08:05:48.509Z,14.08
2022-10-05T08:08:57.401Z,14.29
2022-10-05T08:12:11.589Z,14.34
2022-10-05T08:15:17.461Z,14.44
2022-10-05T08:18:38.097Z,14.66
2022-10-05T08:21:45.695Z,14.88
2022-10-05T08:24:56.972Z,14.90
2022-10-05T08:28:07.379Z,15.01
2022-10-05T08:31:17.874Z,14.92
2022-10-05T08:34:27.541Z,15.00
2022-10-05T08:37:35.592Z,15.03
2022-10-05T08:41:26.875Z,15.32
2022-10-05T08:44:59.247Z,15.56
2022-10-05T08:48:22.946Z,15.85
2022-10-05T08:51:49.978Z,15.81
2022-10-05T08:55:24.266Z,15.91
2022-10-05T08:58:58.653Z,15.86
2022-10-05T09:02:21.644Z,15.84
2022-10-05T09:05:44.798Z,15.78
2022-10-05T09:09:02.272Z,15.84
2022-10-05T09:12:33.196Z,15.83
2022-10-05T09:15:58.487Z,15.85
2022-10-05T09:19:28.054Z,15.92
2022-10-05T09:23:11.054Z,15.93
2022-10-05T09:26:44.064Z,16.01
2022-10-05T09:30:18.480Z,16.03
2022-10-05T09:34:10.604Z,16.16
2022-10-05T09:37:49.322Z,16.37
2022-10-05T09:41:42.117Z,16.56
2022-10-05T09:45:21.147Z,16.59
2022-10-05T09:48:57.737Z,16.60
2022-10-05T09:52:18.772Z,16.58
2022-10-05T09:56:01.310Z,16.78
2022-10-05T09:59:48.778Z,16.91
2022-10-05T10:03:24.271Z,17.17
2022-10-05T10:06:47.566Z,17.20
2022-10-05T10:10:21.462Z,17.01
2022-10-05T10:14:05.541Z,16.94
2022-10-05T10:17:33.554Z,16.90
2022-10-05T10:21:14.849Z,16.83
2022-10-05T10:24:36.223Z,16.82
2022-10-05T10:28:04.550Z,16.89
2022-10-05T10:31:32.810Z,16.92
2022-10-05T10:35:00.804Z,16.90
2022-10-05T10:38:31.042Z,16.93
2022-10-05T10:41:58.888Z,16.94
2022-10-05T10:45:33.890Z,16.96
2022-10-05T10:48:54.005Z,16.94
2022-10-05T10:52:23.373Z,16.91
2022-10-05T10:55:34.983Z,16.90
2022-10-05T10:58:58.660Z,16.87
2022-10-05T11:02:30.129Z,16.95
2022-10-05T11:05:58.924Z,16.99
2022-10-05T11:09:26.073Z,17.14
2022-10-05T11:12:58.105Z,17.34
2022-10-05T11:16:35.050Z,17.41
2022-10-05T11:20:03.518Z,17.46
2022-10-05T11:23:38.789Z,17.54
2022-10-05T11:27:08.382Z,17.49
2022-10-05T11:30:27.433Z,17.39
2022-10-05T11:34:03.249Z,17.60
2022-10-05T11:37:31.955Z,17.65
2022-10-05T11:40:58.806Z,17.77
2022-10-05T11:44:43.016Z,17.66
2022-10-05T11:47:58.451Z,17.63
2022-10-05T11:51:35.378Z,17.57
2022-10-05T11:55:10.361Z,17.54
2022-10-05T11:58:21.954Z,17.54
2022-10-05T12:01:30.482Z,17.56
2022-10-05T12:04:46.606Z,17.54
2022-10-05T12:08:04.003Z,17.50
2022-10-05T12:11:16.952Z,17.48
2022-10-05T12:14:28.993Z,17.36
2022-10-05T12:17:37.685Z,17.33
2022-10-05T12:20:47.022Z,17.31
2022-10-05T12:23:54.904Z,17.28
2022-10-05T12:27:02.988Z,17.29
2022-10-05T12:30:16.082Z,17.30
2022-10-05T12:33:25.809Z,17.34
2022-10-05T12:37:02.488Z,17.38
2022-10-05T12:40:06.187Z,17.48
2022-10-05T12:43:21.442Z,17.55
2022-10-05T12:46:35.066Z,17.75
2022-10-05T12:49:51.178Z,17.92
2022-10-05T12:53:09.530Z,18.07
2022-10-05T12:56:21.600Z,18.14
2022-10-05T12:59:36.777Z,18.33
2022-10-05T13:02:47.021Z,18.31
2022-10-05T13:05:59.049Z,18.43
2022-10-05T13:09:13.014Z,18.45
2022-10-05T13:12:29.843Z,18.57
2022-10-05T13:15:37.308Z,18.69
2022-10-05T13:18:54.383Z,18.59
2022-10-05T13:22:26.563Z,18.67
2022-10-05T13:25:33.754Z,18.49
2022-10-05T13:28:42.812Z,18.55
2022-10-05T13:31:49.019Z,18.75
2022-10-05T13:35:01.457Z,18.82
2022-10-05T13:38:12.452Z,18.88
2022-10-05T13:41:25.911Z,18.92
2022-10-05T13:44:36.196Z,18.90
2022-10-05T13:47:51.861Z,18.84
2022-10-05T13:51:06.974Z,18.82
2022-10-05T13:54:19.169Z,18.84
2022-10-05T13:57:36.259Z,18.92
2022-10-05T14:00:47.945Z,18.94
2022-10-05T14:04:11.121Z,18.91
2022-10-05T14:07:31.338Z,18.92
2022-10-05T14:10:40.322Z,18.86
2022-10-05T14:13:47.588Z,18.95
2022-10-05T14:16:53.584Z,18.85
2022-10-05T14:19:59.943Z,18.77
2022-10-05T14:23:12.081Z,18.60
2022-10-05T14:26:33.573Z,18.56
2022-10-05T14:29:39.245Z,18.55
2022-10-05T14:32:49.823Z,18.49
2022-10-05T14:35:54.721Z,18.44
2022-10-05T14:39:02.081Z,18.45
2022-10-05T14:42:15.893Z,18.39
2022-10-05T14:45:21.645Z,18.27
2022-10-05T14:48:27.948Z,18.17
2022-10-05T14:51:33.208Z,18.12
2022-10-05T14:54:54.043Z,17.98
2022-10-05T14:58:11.259Z,17.94
2022-10-05T15:01:24.110Z,17.93
2022-10-05T15:04:49.946Z,17.89
2022-10-05T15:07:58.088Z,17.87
2022-10-05T15:11:07.626Z,17.81
2022-10-05T15:14:18.574Z,17.70
2022-10-05T15:17:27.076Z,17.74
2022-10-05T15:20:37.210Z,17.72
2022-10-05T15:23:47.336Z,17.75
2022-10-05T15:26:54.643Z,17.78
2022-10-05T15:30:06.328Z,17.70
2022-10-05T15:33:16.114Z,17.60
2022-10-05T15:36:24.299Z,17.57
2022-10-05T15:39:35.348Z,17.54
2022-10-05T15:42:41.647Z,17.46
2022-10-05T15:45:53.915Z,17.45
2022-10-05T15:49:12.809Z,17.38
2022-10-05T15:52:26.131Z,17.36
2022-10-05T15:55:44.195Z,17.17
2022-10-05T15:58:55.502Z,17.18
2022-10-05T16:02:01.871Z,17.06
2022-10-05T16:05:40.781Z,16.98
2022-10-05T16:08:55.779Z,16.92
2022-10-05T16:12:07.314Z,16.84
2022-10-05T16:15:22.193Z,16.96
2022-10-05T16:18:55.091Z,16.76
2022-10-05T16:22:06.200Z,16.78
2022-10-05T16:25:16.378Z,16.69
2022-10-05T16:28:29.910Z,16.53
2022-10-05T16:31:41.568Z,16.58
2022-10-05T16:34:57.890Z,16.51
2022-10-05T16:38:09.876Z,16.40
2022-10-05T16:41:20.280Z,16.48
2022-10-05T16:44:35.749Z,16.30
2022-10-05T16:47:50.282Z,16.28
2022-10-05T16:51:07.600Z,16.10
2022-10-05T16:54:19.136Z,15.72
2022-10-05T16:57:24.937Z,15.88
2022-10-05T17:00:38.687Z,15.72
2022-10-05T17:03:58.303Z,15.75
2022-10-05T17:07:22.008Z,15.61
2022-10-05T17:10:43.060Z,15.58
2022-10-05T17:14:00.342Z,15.52
2022-10-05T17:17:23.613Z,15.66
2022-10-05T17:20:46.084Z,15.54
2022-10-05T17:23:54.870Z,15.57
2022-10-05T17:27:03.662Z,15.52
2022-10-05T17:30:48.579Z,15.28
2022-10-05T17:34:27.355Z,15.41
2022-10-05T17:37:38.438Z,15.40
2022-10-05T17:41:03.320Z,15.22
2022-10-05T17:44:27.782Z,15.23
2022-10-05T17:47:58.667Z,15.26
2022-10-05T17:51:19.320Z,15.40
2022-10-05T17:54:42.830Z,15.40
2022-10-05T17:57:45.846Z,15.45
2022-10-05T18:01:20.402Z,15.44
2022-10-05T18:04:46.175Z,15.45
2022-10-05T18:08:09.891Z,15.47
2022-10-05T18:11:35.468Z,15.55
2022-10-05T18:14:57.148Z,15.51
2022-10-05T18:18:32.866Z,15.62
2022-10-05T18:21:38.881Z,15.74
2022-10-05T18:25:03.951Z,15.85
2022-10-05T18:28:21.828Z,15.88
2022-10-05T18:31:34.307Z,15.84
2022-10-05T18:34:43.589Z,15.79
2022-10-05T18:37:57.264Z,15.71
2022-10-05T18:41:09.221Z,15.73
2022-10-05T18:44:31.069Z,15.74
2022-10-05T18:47:42.645Z,15.89
2022-10-05T18:50:52.766Z,15.94
2022-10-05T18:54:09.286Z,15.97
2022-10-05T18:57:37.701Z,16.03
2022-10-05T19:01:09.772Z,15.88
2022-10-05T19:04:24.669Z,16.25
2022-10-05T19:07:34.584Z,16.24
2022-10-05T19:10:44.626Z,16.09
2022-10-05T19:13:55.817Z,16.31
2022-10-05T19:17:24.780Z,16.22
2022-10-05T19:20:34.143Z,16.39
2022-10-05T19:23:57.589Z,16.35
2022-10-05T19:27:10.615Z,16.28
2022-10-05T19:30:20.835Z,16.37
2022-10-05T19:33:46.821Z,16.21
2022-10-05T19:37:04.514Z,16.18
2022-10-05T19:40:17.774Z,16.22
2022-10-05T19:43:40.506Z,16.22
2022-10-05T19:46:55.137Z,16.17
2022-10-05T19:50:03.458Z,16.07
2022-10-05T19:53:13.317Z,16.18
2022-10-05T19:56:21.189Z,16.24
2022-10-05T19:59:27.588Z,16.37
2022-10-05T20:02:32.030Z,16.39
2022-10-05T20:05:36.582Z,16.46
2022-10-05T20:08:41.869Z,16.46
2022-10-05T20:11:50.924Z,16.43
2022-10-05T20:15:25.911Z,16.38
2022-10-05T20:19:06.360Z,16.32
2022-10-05T20:25:40.259Z,16.24
2022-10-05T20:28:44.409Z,16.32
2022-10-05T20:31:47.606Z,16.29
2022-10-05T20:34:51.183Z,16.15
2022-10-05T20:37:54.434Z,16.13
2022-10-05T20:40:58.735Z,16.20
2022-10-05T20:44:01.730Z,16.09
2022-10-05T20:47:04.975Z,16.03
2022-10-05T20:50:09.679Z,16.06
2022-10-05T20:53:13.183Z,16.01
2022-10-05T20:56:19.940Z,15.97
2022-10-05T20:59:23.957Z,15.89
2022-10-05T21:02:27.288Z,15.85
2022-10-05T21:05:30.530Z,15.81
2022-10-05T21:08:34.759Z,15.84
2022-10-05T21:11:40.674Z,15.81
2022-10-05T21:14:43.875Z,15.80
2022-10-05T21:17:46.748Z,15.77
2022-10-05T21:20:50.070Z,15.71
2022-10-05T21:23:53.000Z,15.91
2022-10-05T21:26:57.696Z,15.81
2022-10-05T21:30:00.981Z,15.91
2022-10-05T21:33:04.103Z,15.87
2022-10-05T21:36:07.104Z,15.91
2022-10-05T21:39:10.046Z,16.12
2022-10-05T21:42:14.238Z,15.97
2022-10-05T21:45:17.291Z,15.95
2022-10-05T21:48:20.521Z,15.88
2022-10-05T21:51:26.323Z,15.81
2022-10-05T21:54:29.259Z,16.06
2022-10-05T21:57:35.681Z,16.00
2022-10-05T22:00:38.621Z,15.98
2022-10-05T22:03:41.716Z,15.94
2022-10-05T22:06:44.905Z,15.90
2022-10-05T22:09:48.620Z,16.09
2022-10-05T22:12:52.961Z,16.02
2022-10-05T22:15:56.714Z,16.05
2022-10-05T22:19:00.147Z,15.97
2022-10-05T22:22:03.249Z,15.90
2022-10-05T22:25:06.904Z,15.89
2022-10-05T22:28:15.934Z,15.92
2022-10-05T22:31:19.830Z,15.92
2022-10-05T22:34:22.915Z,15.85
2022-10-05T22:37:25.856Z,15.76
2022-10-05T22:40:28.805Z,15.65
2022-10-05T22:43:33.018Z,15.69
2022-10-05T22:46:36.223Z,15.68
2022-10-05T22:49:39.213Z,15.72
2022-10-05T22:52:42.602Z,15.79
2022-10-05T22:55:45.535Z,15.81
2022-10-05T22:58:51.097Z,15.73
2022-10-05T23:01:54.094Z,15.89
2022-10-05T23:04:59.168Z,15.85
2022-10-05T23:08:03.134Z,15.78
2022-10-05T23:11:07.728Z,15.67
2022-10-05T23:14:11.996Z,15.62
2022-10-05T23:17:15.019Z,15.70
2022-10-05T23:20:18.083Z,15.68
2022-10-05T23:23:21.052Z,15.62
2022-10-05T23:26:26.081Z,15.57
2022-10-05T23:29:30.356Z,15.61
2022-10-05T23:32:33.525Z,15.59
2022-10-05T23:35:36.443Z,15.53
2022-10-05T23:38:39.304Z,15.49
2022-10-05T23:41:44.306Z,15.48
2022-10-05T23:44:48.758Z,15.47
2022-10-05T23:47:51.603Z,15.46
2022-10-05T23:50:56.419Z,15.45
2022-10-05T23:53:59.394Z,15.44
2022-10-05T23:57:02.302Z,15.42
